sensor_id;sensor_type;location;lat;lon;timestamp;temperature;humidity
18085;DHT22;9169;44.492;11.372;2023-12-20T00:02:05;10.90;46.90
18085;DHT22;9169;44.492;11.372;2023-12-20T00:04:33;10.90;47.40
18085;DHT22;9169;44.492;11.372;2023-12-20T00:07:03;10.90;46.90
18085;DHT22;9169;44.492;11.372;2023-12-20T00:09:32;10.90;46.90
18085;DHT22;9169;44.492;11.372;2023-12-20T00:12:01;10.90;46.90
18085;DHT22;9169;44.492;11.372;2023-12-20T00:14:29;10.90;47.00
18085;DHT22;9169;44.492;11.372;2023-12-20T00:16:58;10.90;47.10
18085;DHT22;9169;44.492;11.372;2023-12-20T00:19:27;10.90;47.10
18085;DHT22;9169;44.492;11.372;2023-12-20T00:21:56;10.80;47.00
18085;DHT22;9169;44.492;11.372;2023-12-20T00:24:26;10.80;47.00
18085;DHT22;9169;44.492;11.372;2023-12-20T00:26:54;10.80;47.50
18085;DHT22;9169;44.492;11.372;2023-12-20T00:29:23;10.80;47.00
18085;DHT22;9169;44.492;11.372;2023-12-20T00:31:51;10.80;47.00
18085;DHT22;9169;44.492;11.372;2023-12-20T00:34:20;10.80;47.00
18085;DHT22;9169;44.492;11.372;2023-12-20T00:36:48;10.80;47.10
18085;DHT22;9169;44.492;11.372;2023-12-20T00:39:17;10.80;47.10
18085;DHT22;9169;44.492;11.372;2023-12-20T00:41:49;10.80;47.20
18085;DHT22;9169;44.492;11.372;2023-12-20T00:44:17;10.70;47.10
18085;DHT22;9169;44.492;11.372;2023-12-20T00:46:46;10.70;47.10
18085;DHT22;9169;44.492;11.372;2023-12-20T00:49:14;10.70;47.10
18085;DHT22;9169;44.492;11.372;2023-12-20T00:51:43;10.70;47.10
18085;DHT22;9169;44.492;11.372;2023-12-20T00:54:12;10.70;47.10
18085;DHT22;9169;44.492;11.372;2023-12-20T00:56:40;10.70;47.20
18085;DHT22;9169;44.492;11.372;2023-12-20T00:59:10;10.70;47.20
18085;DHT22;9169;44.492;11.372;2023-12-20T01:01:39;10.70;47.30
18085;DHT22;9169;44.492;11.372;2023-12-20T01:04:09;10.60;47.30
18085;DHT22;9169;44.492;11.372;2023-12-20T01:06:38;10.60;47.30
18085;DHT22;9169;44.492;11.372;2023-12-20T01:09:06;10.60;47.30
18085;DHT22;9169;44.492;11.372;2023-12-20T01:11:35;10.60;47.30
18085;DHT22;9169;44.492;11.372;2023-12-20T01:14:03;10.60;47.30
18085;DHT22;9169;44.492;11.372;2023-12-20T01:16:33;10.60;47.30
18085;DHT22;9169;44.492;11.372;2023-12-20T01:19:02;10.60;47.30
18085;DHT22;9169;44.492;11.372;2023-12-20T01:21:31;10.60;47.30
18085;DHT22;9169;44.492;11.372;2023-12-20T01:23:59;10.60;47.30
18085;DHT22;9169;44.492;11.372;2023-12-20T01:26:28;10.50;47.10
18085;DHT22;9169;44.492;11.372;2023-12-20T01:28:56;10.50;47.10
18085;DHT22;9169;44.492;11.372;2023-12-20T01:31:26;10.50;47.20
18085;DHT22;9169;44.492;11.372;2023-12-20T01:33:56;10.50;47.10
18085;DHT22;9169;44.492;11.372;2023-12-20T01:36:25;10.50;47.20
18085;DHT22;9169;44.492;11.372;2023-12-20T01:38:54;10.50;47.20
18085;DHT22;9169;44.492;11.372;2023-12-20T01:41:22;10.50;47.80
18085;DHT22;9169;44.492;11.372;2023-12-20T01:43:51;10.40;47.20
18085;DHT22;9169;44.492;11.372;2023-12-20T01:46:21;10.40;47.20
18085;DHT22;9169;44.492;11.372;2023-12-20T01:48:49;10.40;47.30
18085;DHT22;9169;44.492;11.372;2023-12-20T01:51:20;10.40;47.30
18085;DHT22;9169;44.492;11.372;2023-12-20T01:53:49;10.30;47.40
18085;DHT22;9169;44.492;11.372;2023-12-20T01:56:18;10.30;47.50
18085;DHT22;9169;44.492;11.372;2023-12-20T01:58:47;10.30;47.40
18085;DHT22;9169;44.492;11.372;2023-12-20T02:01:16;10.30;47.40
18085;DHT22;9169;44.492;11.372;2023-12-20T02:03:46;10.30;47.40
18085;DHT22;9169;44.492;11.372;2023-12-20T02:06:15;10.30;47.40
18085;DHT22;9169;44.492;11.372;2023-12-20T02:08:45;10.30;47.40
18085;DHT22;9169;44.492;11.372;2023-12-20T02:11:14;10.30;47.40
18085;DHT22;9169;44.492;11.372;2023-12-20T02:13:43;10.40;47.50
18085;DHT22;9169;44.492;11.372;2023-12-20T02:16:11;10.30;47.40
18085;DHT22;9169;44.492;11.372;2023-12-20T02:18:42;10.30;47.50
18085;DHT22;9169;44.492;11.372;2023-12-20T02:21:11;10.30;47.40
18085;DHT22;9169;44.492;11.372;2023-12-20T02:23:41;10.30;47.50
18085;DHT22;9169;44.492;11.372;2023-12-20T02:26:10;10.20;47.40
18085;DHT22;9169;44.492;11.372;2023-12-20T02:28:41;10.20;47.50
18085;DHT22;9169;44.492;11.372;2023-12-20T02:31:09;10.20;47.50
18085;DHT22;9169;44.492;11.372;2023-12-20T02:33:38;10.20;47.50
18085;DHT22;9169;44.492;11.372;2023-12-20T02:36:09;10.20;47.60
18085;DHT22;9169;44.492;11.372;2023-12-20T02:38:38;10.20;47.60
18085;DHT22;9169;44.492;11.372;2023-12-20T02:41:07;10.20;47.60
18085;DHT22;9169;44.492;11.372;2023-12-20T02:43:36;10.10;47.60
18085;DHT22;9169;44.492;11.372;2023-12-20T02:46:05;10.10;47.70
18085;DHT22;9169;44.492;11.372;2023-12-20T02:48:33;10.10;47.70
18085;DHT22;9169;44.492;11.372;2023-12-20T02:51:02;10.10;48.30
18085;DHT22;9169;44.492;11.372;2023-12-20T02:53:31;10.10;47.80
18085;DHT22;9169;44.492;11.372;2023-12-20T02:56:00;10.00;47.70
18085;DHT22;9169;44.492;11.372;2023-12-20T02:58:30;10.10;47.80
18085;DHT22;9169;44.492;11.372;2023-12-20T03:00:58;10.00;47.70
18085;DHT22;9169;44.492;11.372;2023-12-20T03:03:27;10.00;47.70
18085;DHT22;9169;44.492;11.372;2023-12-20T03:05:56;10.00;47.80
18085;DHT22;9169;44.492;11.372;2023-12-20T03:08:24;10.00;47.90
18085;DHT22;9169;44.492;11.372;2023-12-20T03:10:54;10.00;47.90
18085;DHT22;9169;44.492;11.372;2023-12-20T03:13:23;10.00;48.00
18085;DHT22;9169;44.492;11.372;2023-12-20T03:15:53;10.00;48.00
18085;DHT22;9169;44.492;11.372;2023-12-20T03:18:22;9.90;48.90
18085;DHT22;9169;44.492;11.372;2023-12-20T03:20:51;9.90;49.00
18085;DHT22;9169;44.492;11.372;2023-12-20T03:23:20;9.90;49.00
18085;DHT22;9169;44.492;11.372;2023-12-20T03:25:48;9.90;49.00
18085;DHT22;9169;44.492;11.372;2023-12-20T03:28:17;9.90;49.00
18085;DHT22;9169;44.492;11.372;2023-12-20T03:30:46;9.90;49.00
18085;DHT22;9169;44.492;11.372;2023-12-20T03:33:16;9.80;49.00
18085;DHT22;9169;44.492;11.372;2023-12-20T03:35:45;9.80;49.00
18085;DHT22;9169;44.492;11.372;2023-12-20T03:38:14;9.90;49.00
18085;DHT22;9169;44.492;11.372;2023-12-20T03:40:43;9.90;49.00
18085;DHT22;9169;44.492;11.372;2023-12-20T03:43:11;9.90;49.00
18085;DHT22;9169;44.492;11.372;2023-12-20T03:45:40;9.90;49.00
18085;DHT22;9169;44.492;11.372;2023-12-20T03:48:09;9.90;49.00
18085;DHT22;9169;44.492;11.372;2023-12-20T03:50:39;9.90;49.00
18085;DHT22;9169;44.492;11.372;2023-12-20T03:53:07;9.80;49.00
18085;DHT22;9169;44.492;11.372;2023-12-20T03:55:36;9.80;49.00
18085;DHT22;9169;44.492;11.372;2023-12-20T03:58:05;9.80;49.00
18085;DHT22;9169;44.492;11.372;2023-12-20T04:00:33;9.80;48.90
18085;DHT22;9169;44.492;11.372;2023-12-20T04:03:02;9.80;48.90
18085;DHT22;9169;44.492;11.372;2023-12-20T04:05:31;9.70;49.00
18085;DHT22;9169;44.492;11.372;2023-12-20T04:08:02;9.80;49.00
18085;DHT22;9169;44.492;11.372;2023-12-20T04:10:31;9.70;48.90
18085;DHT22;9169;44.492;11.372;2023-12-20T04:13:00;9.70;48.90
18085;DHT22;9169;44.492;11.372;2023-12-20T04:15:29;9.70;48.90
18085;DHT22;9169;44.492;11.372;2023-12-20T04:17:57;9.70;49.40
18085;DHT22;9169;44.492;11.372;2023-12-20T04:20:26;9.70;49.00
18085;DHT22;9169;44.492;11.372;2023-12-20T04:22:55;9.70;49.10
18085;DHT22;9169;44.492;11.372;2023-12-20T04:25:25;9.70;49.10
18085;DHT22;9169;44.492;11.372;2023-12-20T04:27:54;9.70;49.10
18085;DHT22;9169;44.492;11.372;2023-12-20T04:30:22;9.70;49.10
18085;DHT22;9169;44.492;11.372;2023-12-20T04:32:51;9.70;49.10
18085;DHT22;9169;44.492;11.372;2023-12-20T04:35:20;9.70;49.10
18085;DHT22;9169;44.492;11.372;2023-12-20T04:37:48;9.70;49.10
18085;DHT22;9169;44.492;11.372;2023-12-20T04:40:17;9.70;49.20
18085;DHT22;9169;44.492;11.372;2023-12-20T04:42:48;9.70;49.20
18085;DHT22;9169;44.492;11.372;2023-12-20T04:45:18;9.70;49.20
18085;DHT22;9169;44.492;11.372;2023-12-20T04:47:46;9.60;49.20
18085;DHT22;9169;44.492;11.372;2023-12-20T04:50:15;9.60;49.20
18085;DHT22;9169;44.492;11.372;2023-12-20T04:52:44;9.60;49.20
18085;DHT22;9169;44.492;11.372;2023-12-20T04:55:13;9.60;49.20
18085;DHT22;9169;44.492;11.372;2023-12-20T04:57:42;9.60;49.10
18085;DHT22;9169;44.492;11.372;2023-12-20T05:00:13;9.60;49.10
18085;DHT22;9169;44.492;11.372;2023-12-20T05:02:42;9.60;49.10
18085;DHT22;9169;44.492;11.372;2023-12-20T05:05:11;9.60;49.10
18085;DHT22;9169;44.492;11.372;2023-12-20T05:07:40;9.50;49.00
18085;DHT22;9169;44.492;11.372;2023-12-20T05:10:09;9.50;48.90
18085;DHT22;9169;44.492;11.372;2023-12-20T05:12:38;9.50;48.80
18085;DHT22;9169;44.492;11.372;2023-12-20T05:15:07;9.50;48.70
18085;DHT22;9169;44.492;11.372;2023-12-20T05:17:37;9.50;48.70
18085;DHT22;9169;44.492;11.372;2023-12-20T05:20:08;9.40;48.60
18085;DHT22;9169;44.492;11.372;2023-12-20T05:22:37;9.40;48.70
18085;DHT22;9169;44.492;11.372;2023-12-20T05:25:07;9.40;48.70
18085;DHT22;9169;44.492;11.372;2023-12-20T05:27:35;9.40;48.80
18085;DHT22;9169;44.492;11.372;2023-12-20T05:30:05;9.40;48.90
18085;DHT22;9169;44.492;11.372;2023-12-20T05:32:34;9.40;49.00
18085;DHT22;9169;44.492;11.372;2023-12-20T05:35:04;9.40;49.00
18085;DHT22;9169;44.492;11.372;2023-12-20T05:37:33;9.40;49.00
18085;DHT22;9169;44.492;11.372;2023-12-20T05:40:02;9.40;49.00
18085;DHT22;9169;44.492;11.372;2023-12-20T05:42:31;9.40;49.00
18085;DHT22;9169;44.492;11.372;2023-12-20T05:45:00;9.40;49.00
18085;DHT22;9169;44.492;11.372;2023-12-20T05:47:28;9.40;49.00
18085;DHT22;9169;44.492;11.372;2023-12-20T05:49:57;9.40;49.10
18085;DHT22;9169;44.492;11.372;2023-12-20T05:52:27;9.40;49.10
18085;DHT22;9169;44.492;11.372;2023-12-20T05:54:56;9.40;49.10
18085;DHT22;9169;44.492;11.372;2023-12-20T05:57:25;9.40;49.10
18085;DHT22;9169;44.492;11.372;2023-12-20T05:59:53;9.40;49.10
18085;DHT22;9169;44.492;11.372;2023-12-20T06:02:22;9.40;49.20
18085;DHT22;9169;44.492;11.372;2023-12-20T06:04:51;9.40;49.20
18085;DHT22;9169;44.492;11.372;2023-12-20T06:07:19;9.40;49.20
18085;DHT22;9169;44.492;11.372;2023-12-20T06:09:49;9.40;49.20
18085;DHT22;9169;44.492;11.372;2023-12-20T06:12:18;9.40;49.30
18085;DHT22;9169;44.492;11.372;2023-12-20T06:14:47;9.40;49.30
18085;DHT22;9169;44.492;11.372;2023-12-20T06:17:15;9.40;49.40
18085;DHT22;9169;44.492;11.372;2023-12-20T06:19:44;9.40;49.50
18085;DHT22;9169;44.492;11.372;2023-12-20T06:24:44;9.40;49.10
18085;DHT22;9169;44.492;11.372;2023-12-20T06:27:14;9.40;49.50
18085;DHT22;9169;44.492;11.372;2023-12-20T06:29:43;9.40;49.60
18085;DHT22;9169;44.492;11.372;2023-12-20T06:32:12;9.50;49.70
18085;DHT22;9169;44.492;11.372;2023-12-20T06:34:41;9.50;49.70
18085;DHT22;9169;44.492;11.372;2023-12-20T06:37:10;9.50;49.70
18085;DHT22;9169;44.492;11.372;2023-12-20T06:39:39;9.50;49.70
18085;DHT22;9169;44.492;11.372;2023-12-20T06:42:07;9.50;49.70
18085;DHT22;9169;44.492;11.372;2023-12-20T06:44:38;9.50;49.70
18085;DHT22;9169;44.492;11.372;2023-12-20T06:47:07;9.50;49.80
18085;DHT22;9169;44.492;11.372;2023-12-20T06:49:35;9.50;49.70
18085;DHT22;9169;44.492;11.372;2023-12-20T06:52:04;9.50;49.80
18085;DHT22;9169;44.492;11.372;2023-12-20T06:54:33;9.50;49.80
18085;DHT22;9169;44.492;11.372;2023-12-20T06:57:03;9.50;49.90
18085;DHT22;9169;44.492;11.372;2023-12-20T06:59:32;9.50;50.00
18085;DHT22;9169;44.492;11.372;2023-12-20T07:02:02;9.50;50.00
18085;DHT22;9169;44.492;11.372;2023-12-20T07:04:31;9.50;50.00
18085;DHT22;9169;44.492;11.372;2023-12-20T07:06:59;9.60;50.10
18085;DHT22;9169;44.492;11.372;2023-12-20T07:09:28;9.60;50.10
18085;DHT22;9169;44.492;11.372;2023-12-20T07:11:56;9.60;50.10
18085;DHT22;9169;44.492;11.372;2023-12-20T07:14:25;9.60;50.10
18085;DHT22;9169;44.492;11.372;2023-12-20T07:16:55;9.60;50.20
18085;DHT22;9169;44.492;11.372;2023-12-20T07:19:25;9.60;50.20
18085;DHT22;9169;44.492;11.372;2023-12-20T07:21:55;9.70;50.40
18085;DHT22;9169;44.492;11.372;2023-12-20T07:24:23;9.70;50.50
18085;DHT22;9169;44.492;11.372;2023-12-20T07:26:52;9.80;50.60
18085;DHT22;9169;44.492;11.372;2023-12-20T07:29:21;9.80;50.70
18085;DHT22;9169;44.492;11.372;2023-12-20T07:31:49;9.80;50.80
18085;DHT22;9169;44.492;11.372;2023-12-20T07:34:19;9.90;50.80
18085;DHT22;9169;44.492;11.372;2023-12-20T07:36:49;10.00;50.10
18085;DHT22;9169;44.492;11.372;2023-12-20T07:39:18;10.00;50.10
18085;DHT22;9169;44.492;11.372;2023-12-20T07:41:47;10.00;50.10
18085;DHT22;9169;44.492;11.372;2023-12-20T07:44:16;10.10;50.10
18085;DHT22;9169;44.492;11.372;2023-12-20T07:46:44;10.10;50.10
18085;DHT22;9169;44.492;11.372;2023-12-20T07:49:13;10.10;50.00
18085;DHT22;9169;44.492;11.372;2023-12-20T07:51:42;10.20;50.00
18085;DHT22;9169;44.492;11.372;2023-12-20T07:54:12;10.20;50.00
18085;DHT22;9169;44.492;11.372;2023-12-20T07:56:41;10.30;50.10
18085;DHT22;9169;44.492;11.372;2023-12-20T07:59:10;10.30;50.00
18085;DHT22;9169;44.492;11.372;2023-12-20T08:01:41;10.30;50.00
18085;DHT22;9169;44.492;11.372;2023-12-20T08:04:10;10.30;50.00
18085;DHT22;9169;44.492;11.372;2023-12-20T08:06:39;10.40;50.00
18085;DHT22;9169;44.492;11.372;2023-12-20T08:09:08;10.40;50.00
18085;DHT22;9169;44.492;11.372;2023-12-20T08:11:39;10.50;50.10
18085;DHT22;9169;44.492;11.372;2023-12-20T08:14:07;10.50;50.10
18085;DHT22;9169;44.492;11.372;2023-12-20T08:16:36;10.50;50.10
18085;DHT22;9169;44.492;11.372;2023-12-20T08:19:05;10.60;50.10
18085;DHT22;9169;44.492;11.372;2023-12-20T08:21:34;10.60;50.00
18085;DHT22;9169;44.492;11.372;2023-12-20T08:24:04;10.60;49.90
18085;DHT22;9169;44.492;11.372;2023-12-20T08:26:33;10.70;50.00
18085;DHT22;9169;44.492;11.372;2023-12-20T08:29:03;10.70;50.00
18085;DHT22;9169;44.492;11.372;2023-12-20T08:31:32;10.70;49.90
18085;DHT22;9169;44.492;11.372;2023-12-20T08:34:01;10.70;49.80
18085;DHT22;9169;44.492;11.372;2023-12-20T08:36:31;10.70;49.70
18085;DHT22;9169;44.492;11.372;2023-12-20T08:39:00;10.70;49.50
18085;DHT22;9169;44.492;11.372;2023-12-20T08:41:30;10.80;49.60
18085;DHT22;9169;44.492;11.372;2023-12-20T08:43:59;10.80;49.50
18085;DHT22;9169;44.492;11.372;2023-12-20T08:46:29;10.80;49.30
18085;DHT22;9169;44.492;11.372;2023-12-20T08:48:58;10.80;49.20
18085;DHT22;9169;44.492;11.372;2023-12-20T08:51:27;10.80;49.10
18085;DHT22;9169;44.492;11.372;2023-12-20T08:53:56;10.80;48.90
18085;DHT22;9169;44.492;11.372;2023-12-20T08:56:25;10.80;48.90
18085;DHT22;9169;44.492;11.372;2023-12-20T08:58:54;10.80;48.90
18085;DHT22;9169;44.492;11.372;2023-12-20T09:01:22;10.80;48.70
18085;DHT22;9169;44.492;11.372;2023-12-20T09:03:52;10.80;48.50
18085;DHT22;9169;44.492;11.372;2023-12-20T09:06:21;10.70;48.30
18085;DHT22;9169;44.492;11.372;2023-12-20T09:08:50;10.70;48.30
18085;DHT22;9169;44.492;11.372;2023-12-20T09:11:19;10.70;48.30
18085;DHT22;9169;44.492;11.372;2023-12-20T09:13:48;10.70;48.30
18085;DHT22;9169;44.492;11.372;2023-12-20T09:16:17;10.70;48.50
18085;DHT22;9169;44.492;11.372;2023-12-20T09:18:45;10.70;48.70
18085;DHT22;9169;44.492;11.372;2023-12-20T09:21:15;10.70;48.90
18085;DHT22;9169;44.492;11.372;2023-12-20T09:23:44;10.80;49.00
18085;DHT22;9169;44.492;11.372;2023-12-20T09:26:13;10.50;49.00
18085;DHT22;9169;44.492;11.372;2023-12-20T09:28:42;10.70;49.20
18085;DHT22;9169;44.492;11.372;2023-12-20T09:31:11;10.80;49.40
18085;DHT22;9169;44.492;11.372;2023-12-20T09:33:40;10.90;49.60
18085;DHT22;9169;44.492;11.372;2023-12-20T09:36:10;10.90;49.60
18085;DHT22;9169;44.492;11.372;2023-12-20T09:38:41;11.00;49.60
18085;DHT22;9169;44.492;11.372;2023-12-20T09:41:11;11.00;49.70
18085;DHT22;9169;44.492;11.372;2023-12-20T09:43:42;11.10;49.70
18085;DHT22;9169;44.492;11.372;2023-12-20T09:46:12;11.20;50.40
18085;DHT22;9169;44.492;11.372;2023-12-20T09:48:44;11.30;49.90
18085;DHT22;9169;44.492;11.372;2023-12-20T09:51:13;11.40;49.80
18085;DHT22;9169;44.492;11.372;2023-12-20T09:53:46;11.40;49.60
18085;DHT22;9169;44.492;11.372;2023-12-20T09:56:18;11.50;49.50
18085;DHT22;9169;44.492;11.372;2023-12-20T09:58:46;11.60;49.40
18085;DHT22;9169;44.492;11.372;2023-12-20T10:01:16;11.60;49.10
18085;DHT22;9169;44.492;11.372;2023-12-20T10:03:45;11.60;48.80
18085;DHT22;9169;44.492;11.372;2023-12-20T10:06:14;11.60;48.80
18085;DHT22;9169;44.492;11.372;2023-12-20T10:08:45;11.60;48.80
18085;DHT22;9169;44.492;11.372;2023-12-20T10:11:14;11.60;48.70
18085;DHT22;9169;44.492;11.372;2023-12-20T10:13:44;11.70;48.70
18085;DHT22;9169;44.492;11.372;2023-12-20T10:16:15;11.70;48.70
18085;DHT22;9169;44.492;11.372;2023-12-20T10:18:45;11.80;48.70
18085;DHT22;9169;44.492;11.372;2023-12-20T10:21:14;11.80;48.70
18085;DHT22;9169;44.492;11.372;2023-12-20T10:23:45;11.90;48.70
18085;DHT22;9169;44.492;11.372;2023-12-20T10:26:21;11.90;48.60
18085;DHT22;9169;44.492;11.372;2023-12-20T10:28:50;11.90;48.70
18085;DHT22;9169;44.492;11.372;2023-12-20T10:31:27;12.00;48.70
18085;DHT22;9169;44.492;11.372;2023-12-20T10:33:57;12.10;48.70
18085;DHT22;9169;44.492;11.372;2023-12-20T10:36:28;12.10;48.70
18085;DHT22;9169;44.492;11.372;2023-12-20T10:38:58;12.20;48.60
18085;DHT22;9169;44.492;11.372;2023-12-20T10:41:30;12.20;48.60
18085;DHT22;9169;44.492;11.372;2023-12-20T10:44:00;12.30;48.40
18085;DHT22;9169;44.492;11.372;2023-12-20T10:46:30;12.30;48.20
18085;DHT22;9169;44.492;11.372;2023-12-20T10:49:02;12.30;48.10
18085;DHT22;9169;44.492;11.372;2023-12-20T10:51:31;12.30;48.00
18085;DHT22;9169;44.492;11.372;2023-12-20T10:54:03;12.40;48.00
18085;DHT22;9169;44.492;11.372;2023-12-20T10:56:32;12.40;48.00
18085;DHT22;9169;44.492;11.372;2023-12-20T10:59:04;12.50;48.20
18085;DHT22;9169;44.492;11.372;2023-12-20T11:01:34;12.50;48.10
18085;DHT22;9169;44.492;11.372;2023-12-20T11:04:06;12.50;48.10
18085;DHT22;9169;44.492;11.372;2023-12-20T11:06:43;12.60;48.20
18085;DHT22;9169;44.492;11.372;2023-12-20T11:09:20;12.60;48.30
18085;DHT22;9169;44.492;11.372;2023-12-20T11:11:59;12.60;48.20
18085;DHT22;9169;44.492;11.372;2023-12-20T11:14:37;12.70;48.20
18085;DHT22;9169;44.492;11.372;2023-12-20T11:17:07;12.70;48.00
18085;DHT22;9169;44.492;11.372;2023-12-20T11:19:38;12.70;47.80
18085;DHT22;9169;44.492;11.372;2023-12-20T11:22:06;12.80;48.00
18085;DHT22;9169;44.492;11.372;2023-12-20T11:24:44;12.80;48.10
18085;DHT22;9169;44.492;11.372;2023-12-20T11:27:13;12.90;48.10
18085;DHT22;9169;44.492;11.372;2023-12-20T11:29:42;12.90;48.10
18085;DHT22;9169;44.492;11.372;2023-12-20T11:32:28;13.00;48.70
18085;DHT22;9169;44.492;11.372;2023-12-20T11:34:59;13.00;48.00
18085;DHT22;9169;44.492;11.372;2023-12-20T11:37:31;13.10;47.80
18085;DHT22;9169;44.492;11.372;2023-12-20T11:40:03;13.10;47.70
18085;DHT22;9169;44.492;11.372;2023-12-20T11:42:38;13.20;47.40
18085;DHT22;9169;44.492;11.372;2023-12-20T11:45:09;13.20;47.60
18085;DHT22;9169;44.492;11.372;2023-12-20T11:47:38;13.20;47.80
18085;DHT22;9169;44.492;11.372;2023-12-20T11:50:08;13.30;47.90
18085;DHT22;9169;44.492;11.372;2023-12-20T11:52:37;13.40;47.90
18085;DHT22;9169;44.492;11.372;2023-12-20T11:55:07;13.40;47.90
18085;DHT22;9169;44.492;11.372;2023-12-20T11:57:36;13.40;47.80
18085;DHT22;9169;44.492;11.372;2023-12-20T12:00:06;13.50;47.90
18085;DHT22;9169;44.492;11.372;2023-12-20T12:02:41;13.50;47.90
18085;DHT22;9169;44.492;11.372;2023-12-20T12:05:11;13.50;47.90
18085;DHT22;9169;44.492;11.372;2023-12-20T12:07:40;13.50;47.90
18085;DHT22;9169;44.492;11.372;2023-12-20T12:10:10;13.50;47.90
18085;DHT22;9169;44.492;11.372;2023-12-20T12:12:39;13.50;47.90
18085;DHT22;9169;44.492;11.372;2023-12-20T12:15:08;13.50;48.00
18085;DHT22;9169;44.492;11.372;2023-12-20T12:17:37;13.60;48.10
18085;DHT22;9169;44.492;11.372;2023-12-20T12:20:09;13.60;48.20
18085;DHT22;9169;44.492;11.372;2023-12-20T12:22:38;13.60;48.10
18085;DHT22;9169;44.492;11.372;2023-12-20T12:25:12;13.70;48.10
18085;DHT22;9169;44.492;11.372;2023-12-20T12:27:43;13.70;48.10
18085;DHT22;9169;44.492;11.372;2023-12-20T12:30:12;13.70;48.00
18085;DHT22;9169;44.492;11.372;2023-12-20T12:32:41;13.80;48.00
18085;DHT22;9169;44.492;11.372;2023-12-20T12:35:10;13.80;47.90
18085;DHT22;9169;44.492;11.372;2023-12-20T12:37:40;13.80;47.80
18085;DHT22;9169;44.492;11.372;2023-12-20T12:40:12;13.80;47.60
18085;DHT22;9169;44.492;11.372;2023-12-20T12:42:42;13.70;47.50
18085;DHT22;9169;44.492;11.372;2023-12-20T12:45:11;13.70;47.60
18085;DHT22;9169;44.492;11.372;2023-12-20T12:47:40;13.70;47.60
18085;DHT22;9169;44.492;11.372;2023-12-20T12:50:09;13.60;47.40
18085;DHT22;9169;44.492;11.372;2023-12-20T12:52:38;13.60;47.60
18085;DHT22;9169;44.492;11.372;2023-12-20T12:55:07;13.60;47.50
18085;DHT22;9169;44.492;11.372;2023-12-20T12:57:38;13.50;47.20
18085;DHT22;9169;44.492;11.372;2023-12-20T13:00:07;13.50;47.30
18085;DHT22;9169;44.492;11.372;2023-12-20T13:02:36;13.50;47.40
18085;DHT22;9169;44.492;11.372;2023-12-20T13:05:09;13.50;47.40
18085;DHT22;9169;44.492;11.372;2023-12-20T13:07:38;13.60;47.40
18085;DHT22;9169;44.492;11.372;2023-12-20T13:10:08;13.60;47.30
18085;DHT22;9169;44.492;11.372;2023-12-20T13:12:40;13.60;47.30
18085;DHT22;9169;44.492;11.372;2023-12-20T13:15:09;13.60;47.30
18085;DHT22;9169;44.492;11.372;2023-12-20T13:17:37;13.60;47.30
18085;DHT22;9169;44.492;11.372;2023-12-20T13:20:08;13.60;47.30
18085;DHT22;9169;44.492;11.372;2023-12-20T13:22:36;13.50;47.20
18085;DHT22;9169;44.492;11.372;2023-12-20T13:25:06;13.50;47.30
18085;DHT22;9169;44.492;11.372;2023-12-20T13:27:39;13.50;47.30
18085;DHT22;9169;44.492;11.372;2023-12-20T13:30:10;13.40;47.10
18085;DHT22;9169;44.492;11.372;2023-12-20T13:32:39;13.30;47.10
18085;DHT22;9169;44.492;11.372;2023-12-20T13:35:09;13.30;47.30
18085;DHT22;9169;44.492;11.372;2023-12-20T13:37:39;13.30;47.50
18085;DHT22;9169;44.492;11.372;2023-12-20T13:40:08;13.30;47.60
18085;DHT22;9169;44.492;11.372;2023-12-20T13:42:39;13.30;47.80
18085;DHT22;9169;44.492;11.372;2023-12-20T13:45:08;13.30;47.80
18085;DHT22;9169;44.492;11.372;2023-12-20T13:47:37;13.30;47.90
18085;DHT22;9169;44.492;11.372;2023-12-20T13:50:07;13.30;47.90
18085;DHT22;9169;44.492;11.372;2023-12-20T13:52:40;13.30;47.90
18085;DHT22;9169;44.492;11.372;2023-12-20T13:55:09;13.30;47.90
18085;DHT22;9169;44.492;11.372;2023-12-20T13:57:40;13.20;47.80
18085;DHT22;9169;44.492;11.372;2023-12-20T14:00:11;13.20;47.70
18085;DHT22;9169;44.492;11.372;2023-12-20T14:02:42;13.20;47.70
18085;DHT22;9169;44.492;11.372;2023-12-20T14:05:10;13.10;47.60
18085;DHT22;9169;44.492;11.372;2023-12-20T14:07:40;13.10;47.70
18085;DHT22;9169;44.492;11.372;2023-12-20T14:10:12;13.00;47.70
18085;DHT22;9169;44.492;11.372;2023-12-20T14:12:43;13.00;47.70
18085;DHT22;9169;44.492;11.372;2023-12-20T14:15:12;13.00;47.80
18085;DHT22;9169;44.492;11.372;2023-12-20T14:17:41;13.00;47.80
18085;DHT22;9169;44.492;11.372;2023-12-20T14:20:10;13.00;47.80
18085;DHT22;9169;44.492;11.372;2023-12-20T14:22:40;13.00;47.90
18085;DHT22;9169;44.492;11.372;2023-12-20T14:25:11;13.00;48.00
18085;DHT22;9169;44.492;11.372;2023-12-20T14:27:42;13.00;48.00
18085;DHT22;9169;44.492;11.372;2023-12-20T14:30:12;13.00;48.00
18085;DHT22;9169;44.492;11.372;2023-12-20T14:32:43;13.00;48.00
18085;DHT22;9169;44.492;11.372;2023-12-20T14:35:11;12.90;47.90
18085;DHT22;9169;44.492;11.372;2023-12-20T14:37:40;12.90;47.90
18085;DHT22;9169;44.492;11.372;2023-12-20T14:40:10;12.90;48.00
18085;DHT22;9169;44.492;11.372;2023-12-20T14:42:44;12.80;47.90
18085;DHT22;9169;44.492;11.372;2023-12-20T14:45:15;12.80;48.00
18085;DHT22;9169;44.492;11.372;2023-12-20T14:47:44;12.80;47.90
18085;DHT22;9169;44.492;11.372;2023-12-20T14:50:15;12.80;48.00
18085;DHT22;9169;44.492;11.372;2023-12-20T14:52:46;12.70;48.00
18085;DHT22;9169;44.492;11.372;2023-12-20T14:55:15;12.70;48.10
18085;DHT22;9169;44.492;11.372;2023-12-20T14:57:46;12.70;48.20
18085;DHT22;9169;44.492;11.372;2023-12-20T15:00:15;12.70;48.10
18085;DHT22;9169;44.492;11.372;2023-12-20T15:02:45;12.70;48.20
18085;DHT22;9169;44.492;11.372;2023-12-20T15:05:14;12.60;48.10
18085;DHT22;9169;44.492;11.372;2023-12-20T15:07:44;12.70;48.30
18085;DHT22;9169;44.492;11.372;2023-12-20T15:10:14;12.70;48.30
18085;DHT22;9169;44.492;11.372;2023-12-20T15:12:45;12.70;48.30
18085;DHT22;9169;44.492;11.372;2023-12-20T15:15:15;12.60;48.30
18085;DHT22;9169;44.492;11.372;2023-12-20T15:17:43;12.70;48.30
18085;DHT22;9169;44.492;11.372;2023-12-20T15:20:13;12.60;48.30
18085;DHT22;9169;44.492;11.372;2023-12-20T15:22:42;12.70;48.40
18085;DHT22;9169;44.492;11.372;2023-12-20T15:25:13;12.60;48.30
18085;DHT22;9169;44.492;11.372;2023-12-20T15:27:50;12.60;48.20
18085;DHT22;9169;44.492;11.372;2023-12-20T15:30:20;12.60;48.30
18085;DHT22;9169;44.492;11.372;2023-12-20T15:32:51;12.60;48.20
18085;DHT22;9169;44.492;11.372;2023-12-20T15:35:20;12.60;48.30
18085;DHT22;9169;44.492;11.372;2023-12-20T15:37:49;12.50;48.30
18085;DHT22;9169;44.492;11.372;2023-12-20T15:40:18;12.60;48.40
18085;DHT22;9169;44.492;11.372;2023-12-20T15:42:47;12.50;48.30
18085;DHT22;9169;44.492;11.372;2023-12-20T15:45:17;12.50;48.40
18085;DHT22;9169;44.492;11.372;2023-12-20T15:47:46;12.50;48.40
18085;DHT22;9169;44.492;11.372;2023-12-20T15:50:15;12.50;48.40
18085;DHT22;9169;44.492;11.372;2023-12-20T15:52:44;12.40;48.40